XTV977 YMAV-YMEN
Flight info
| Callsign | XTV977 |
|---|---|
| Flight time | 0h 20m |
| Altitude | 2500 |
| Route | LRM DCT WMS DCT SNP DCT MCTY |
| Aircraft | SR22/L-SFG/C |
Departure
| Time | 2026-04-16 10:41 |
|---|---|
| Airport | Melbourne Avalon International Airport (YMAV) |
Arrival
| Time | 2026-04-16 11:02 |
|---|---|
| Airport | Melbourne Essendon Airport (YMEN) |
| Time | Latitude | Longitude | Altitude | Speed | Heading |
|---|---|---|---|---|---|
| 2026-04-16 10:28 | -38.02552 | 144.48108 | 46 ft | 0 kts | 96° |
| 2026-04-16 10:33 | -38.02553 | 144.48120 | 46 ft | 5 kts | 94° |
| 2026-04-16 10:33 | -38.02553 | 144.48166 | 47 ft | 3 kts | 90° |
| 2026-04-16 10:34 | -38.02569 | 144.48181 | 46 ft | 7 kts | 177° |
| 2026-04-16 10:34 | -38.02651 | 144.48171 | 45 ft | 5 kts | 192° |
| 2026-04-16 10:34 | -38.02652 | 144.48171 | 45 ft | 0 kts | 192° |
| 2026-04-16 10:34 | -38.02674 | 144.48166 | 44 ft | 11 kts | 188° |
| 2026-04-16 10:35 | -38.02754 | 144.48151 | 43 ft | 21 kts | 193° |
| 2026-04-16 10:35 | -38.02843 | 144.47966 | 39 ft | 18 kts | 278° |
| 2026-04-16 10:35 | -38.02822 | 144.47810 | 38 ft | 17 kts | 280° |
| 2026-04-16 10:35 | -38.02808 | 144.47667 | 39 ft | 15 kts | 276° |
| 2026-04-16 10:36 | -38.02806 | 144.47539 | 39 ft | 14 kts | 256° |
| 2026-04-16 10:36 | -38.02810 | 144.47412 | 38 ft | 14 kts | 266° |
| 2026-04-16 10:36 | -38.02873 | 144.47357 | 37 ft | 13 kts | 192° |
| 2026-04-16 10:36 | -38.02976 | 144.47336 | 36 ft | 15 kts | 192° |
| 2026-04-16 10:37 | -38.03071 | 144.47319 | 36 ft | 13 kts | 178° |
| 2026-04-16 10:37 | -38.03169 | 144.47258 | 35 ft | 17 kts | 218° |
| 2026-04-16 10:37 | -38.03243 | 144.47141 | 34 ft | 17 kts | 234° |
| 2026-04-16 10:37 | -38.03341 | 144.47055 | 34 ft | 19 kts | 199° |
| 2026-04-16 10:38 | -38.03434 | 144.47034 | 33 ft | 20 kts | 190° |
| 2026-04-16 10:38 | -38.03561 | 144.47014 | 32 ft | 16 kts | 186° |
| 2026-04-16 10:38 | -38.03702 | 144.46982 | 31 ft | 13 kts | 190° |
| 2026-04-16 10:38 | -38.03775 | 144.46959 | 32 ft | 1 kts | 195° |
| 2026-04-16 10:39 | -38.03844 | 144.46960 | 33 ft | 26 kts | 181° |
| 2026-04-16 10:39 | -38.04156 | 144.46907 | 38 ft | 23 kts | 185° |
| 2026-04-16 10:39 | -38.04286 | 144.46887 | 38 ft | 17 kts | 177° |
| 2026-04-16 10:39 | -38.04433 | 144.46866 | 38 ft | 21 kts | 191° |
| 2026-04-16 10:40 | -38.04557 | 144.46840 | 37 ft | 18 kts | 186° |
| 2026-04-16 10:40 | -38.04645 | 144.46790 | 36 ft | 12 kts | 259° |
| 2026-04-16 10:40 | -38.04635 | 144.46639 | 36 ft | 13 kts | 313° |
| 2026-04-16 10:40 | -38.04534 | 144.46632 | 37 ft | 27 kts | 6° |
| 2026-04-16 10:41 | -38.04113 | 144.46718 | 69 ft | 87 kts | 0° |
| 2026-04-16 10:41 | -38.03464 | 144.46809 | 329 ft | 100 kts | 360° |
| 2026-04-16 10:41 | -38.02687 | 144.46921 | 497 ft | 122 kts | 0° |
| 2026-04-16 10:41 | -38.01844 | 144.47011 | 860 ft | 122 kts | 359° |
| 2026-04-16 10:42 | -38.01152 | 144.46808 | 1117 ft | 119 kts | 321° |
| 2026-04-16 10:42 | -38.00897 | 144.45960 | 1106 ft | 138 kts | 252° |
| 2026-04-16 10:43 | -38.01666 | 144.45396 | 1560 ft | 129 kts | 174° |
| 2026-04-16 10:43 | -38.02385 | 144.46140 | 1644 ft | 152 kts | 115° |
| 2026-04-16 10:43 | -38.02529 | 144.47510 | 1667 ft | 165 kts | 85° |
| 2026-04-16 10:43 | -38.02419 | 144.48999 | 1636 ft | 174 kts | 81° |
| 2026-04-16 10:44 | -38.02125 | 144.50499 | 1640 ft | 178 kts | 71° |
| 2026-04-16 10:44 | -38.01737 | 144.52017 | 1612 ft | 183 kts | 69° |
| 2026-04-16 10:44 | -38.01303 | 144.53532 | 1606 ft | 183 kts | 66° |
| 2026-04-16 10:44 | -38.00826 | 144.55034 | 1602 ft | 182 kts | 65° |
| 2026-04-16 10:45 | -38.00321 | 144.56496 | 1603 ft | 181 kts | 63° |
| 2026-04-16 10:45 | -37.99784 | 144.57928 | 1602 ft | 180 kts | 61° |
| 2026-04-16 10:45 | -37.99215 | 144.59340 | 1603 ft | 180 kts | 59° |
| 2026-04-16 10:45 | -37.98608 | 144.60725 | 1603 ft | 180 kts | 57° |
| 2026-04-16 10:46 | -37.97966 | 144.62099 | 1604 ft | 179 kts | 55° |
| 2026-04-16 10:46 | -37.97290 | 144.63417 | 1603 ft | 178 kts | 50° |
| 2026-04-16 10:46 | -37.96339 | 144.64371 | 1612 ft | 174 kts | 28° |
| 2026-04-16 10:46 | -37.95318 | 144.65190 | 1602 ft | 174 kts | 27° |
| 2026-04-16 10:47 | -37.94243 | 144.65858 | 1605 ft | 172 kts | 19° |
| 2026-04-16 10:47 | -37.93136 | 144.66444 | 1589 ft | 173 kts | 19° |
| 2026-04-16 10:47 | -37.92004 | 144.67036 | 1510 ft | 176 kts | 19° |
| 2026-04-16 10:47 | -37.90863 | 144.67633 | 1501 ft | 175 kts | 18° |
| 2026-04-16 10:48 | -37.89748 | 144.68216 | 1501 ft | 173 kts | 18° |
| 2026-04-16 10:48 | -37.88755 | 144.69078 | 1494 ft | 175 kts | 45° |
| 2026-04-16 10:48 | -37.88081 | 144.70334 | 1495 ft | 174 kts | 63° |
| 2026-04-16 10:48 | -37.87719 | 144.71796 | 1498 ft | 173 kts | 76° |
| 2026-04-16 10:49 | -37.87436 | 144.73280 | 1502 ft | 173 kts | 77° |
| 2026-04-16 10:49 | -37.87150 | 144.74771 | 1501 ft | 174 kts | 75° |
| 2026-04-16 10:49 | -37.86795 | 144.76215 | 1502 ft | 174 kts | 72° |
| 2026-04-16 10:49 | -37.86044 | 144.77406 | 1454 ft | 175 kts | 37° |
| 2026-04-16 10:50 | -37.85249 | 144.78516 | 1452 ft | 175 kts | 66° |
| 2026-04-16 10:50 | -37.85031 | 144.80032 | 1474 ft | 172 kts | 82° |
| 2026-04-16 10:50 | -37.84857 | 144.81508 | 1499 ft | 172 kts | 82° |
| 2026-04-16 10:50 | -37.84696 | 144.83025 | 1500 ft | 172 kts | 84° |
| 2026-04-16 10:51 | -37.84559 | 144.84534 | 1490 ft | 173 kts | 83° |
| 2026-04-16 10:51 | -37.84341 | 144.86032 | 1470 ft | 174 kts | 80° |
| 2026-04-16 10:51 | -37.84124 | 144.87530 | 1472 ft | 174 kts | 81° |
| 2026-04-16 10:51 | -37.83995 | 144.89046 | 1441 ft | 175 kts | 86° |
| 2026-04-16 10:52 | -37.83913 | 144.90591 | 1416 ft | 176 kts | 88° |
| 2026-04-16 10:52 | -37.83860 | 144.92108 | 1462 ft | 172 kts | 88° |
| 2026-04-16 10:52 | -37.83809 | 144.93597 | 1495 ft | 171 kts | 88° |
| 2026-04-16 10:52 | -37.83723 | 144.95122 | 1472 ft | 174 kts | 81° |
| 2026-04-16 10:53 | -37.83294 | 144.96516 | 1496 ft | 167 kts | 54° |
| 2026-04-16 10:53 | -37.82470 | 144.97499 | 1484 ft | 161 kts | 26° |
| 2026-04-16 10:53 | -37.81436 | 144.97630 | 1436 ft | 152 kts | 334° |
| 2026-04-16 10:53 | -37.80634 | 144.96855 | 1422 ft | 141 kts | 300° |
| 2026-04-16 10:54 | -37.80472 | 144.95723 | 1478 ft | 132 kts | 256° |
| 2026-04-16 10:54 | -37.80868 | 144.94672 | 1451 ft | 135 kts | 229° |
| 2026-04-16 10:54 | -37.81692 | 144.94113 | 1449 ft | 142 kts | 182° |
| 2026-04-16 10:54 | -37.82562 | 144.94713 | 1422 ft | 154 kts | 134° |
| 2026-04-16 10:55 | -37.82988 | 144.95961 | 1460 ft | 157 kts | 96° |
| 2026-04-16 10:55 | -37.82732 | 144.97292 | 1505 ft | 157 kts | 58° |
| 2026-04-16 10:55 | -37.81959 | 144.98198 | 1544 ft | 154 kts | 20° |
| 2026-04-16 10:55 | -37.80952 | 144.98238 | 1550 ft | 145 kts | 331° |
| 2026-04-16 10:56 | -37.80306 | 144.97340 | 1575 ft | 138 kts | 294° |
| 2026-04-16 10:56 | -37.79979 | 144.96201 | 1488 ft | 143 kts | 269° |
| 2026-04-16 10:56 | -37.80168 | 144.94949 | 1471 ft | 142 kts | 268° |
| 2026-04-16 10:56 | -37.79676 | 144.93900 | 1559 ft | 151 kts | 324° |
| 2026-04-16 10:57 | -37.78638 | 144.93498 | 1494 ft | 158 kts | 341° |
| 2026-04-16 10:57 | -37.77620 | 144.93094 | 1356 ft | 148 kts | 334° |
| 2026-04-16 10:57 | -37.76668 | 144.92697 | 1224 ft | 142 kts | 335° |
| 2026-04-16 10:57 | -37.75749 | 144.92253 | 1105 ft | 136 kts | 334° |
| 2026-04-16 10:58 | -37.74876 | 144.91869 | 1122 ft | 135 kts | 334° |
| 2026-04-16 10:58 | -37.73914 | 144.91602 | 1344 ft | 143 kts | 345° |
| 2026-04-16 10:58 | -37.72901 | 144.91432 | 1459 ft | 154 kts | 345° |
| 2026-04-16 10:58 | -37.71895 | 144.91036 | 1482 ft | 139 kts | 316° |
| 2026-04-16 10:59 | -37.71627 | 144.90070 | 1293 ft | 113 kts | 248° |
| 2026-04-16 10:59 | -37.72231 | 144.89644 | 1084 ft | 106 kts | 185° |
| 2026-04-16 10:59 | -37.72989 | 144.89589 | 910 ft | 117 kts | 186° |
| 2026-04-16 10:59 | -37.73800 | 144.89792 | 1084 ft | 122 kts | 147° |
| 2026-04-16 11:00 | -37.74177 | 144.90717 | 1080 ft | 122 kts | 92° |
| 2026-04-16 11:00 | -37.74229 | 144.91742 | 1056 ft | 107 kts | 98° |
| 2026-04-16 11:00 | -37.74303 | 144.92658 | 916 ft | 103 kts | 97° |
| 2026-04-16 11:00 | -37.74050 | 144.93382 | 855 ft | 94 kts | 18° |
| 2026-04-16 11:01 | -37.73428 | 144.93365 | 720 ft | 89 kts | 334° |
| 2026-04-16 11:01 | -37.73065 | 144.92860 | 561 ft | 73 kts | 279° |
| 2026-04-16 11:01 | -37.73060 | 144.92248 | 437 ft | 69 kts | 265° |
| 2026-04-16 11:01 | -37.73076 | 144.91641 | 322 ft | 68 kts | 265° |
| 2026-04-16 11:02 | -37.73090 | 144.91090 | 253 ft | 52 kts | 268° |
| 2026-04-16 11:02 | -37.73100 | 144.90703 | 252 ft | 37 kts | 267° |
| 2026-04-16 11:02 | -37.73108 | 144.90433 | 257 ft | 26 kts | 267° |
| 2026-04-16 11:02 | -37.73114 | 144.90231 | 264 ft | 23 kts | 267° |
| 2026-04-16 11:03 | -37.73111 | 144.90034 | 267 ft | 13 kts | 288° |
| 2026-04-16 11:03 | -37.73042 | 144.90001 | 269 ft | 14 kts | 1° |
| 2026-04-16 11:03 | -37.72861 | 144.89891 | 268 ft | 10 kts | 302° |
| 2026-04-16 11:04 | -37.72848 | 144.89859 | 268 ft | 0 kts | 286° |